sensor_id;sensor_type;location;lat;lon;timestamp;P1;durP1;ratioP1;P2;durP2;ratioP2
74401;SDS011;62837;51.082;13.744;2022-12-07T00:00:28;9.40;;;4.80;;
74401;SDS011;62837;51.082;13.744;2022-12-07T00:02:59;8.80;;;5.50;;
74401;SDS011;62837;51.082;13.744;2022-12-07T00:05:30;6.80;;;3.70;;
74401;SDS011;62837;51.082;13.744;2022-12-07T00:08:01;7.60;;;4.10;;
74401;SDS011;62837;51.082;13.744;2022-12-07T00:10:34;7.70;;;4.40;;
74401;SDS011;62837;51.082;13.744;2022-12-07T00:13:05;5.00;;;2.60;;
74401;SDS011;62837;51.082;13.744;2022-12-07T00:15:35;10.60;;;4.80;;
74401;SDS011;62837;51.082;13.744;2022-12-07T00:18:06;7.30;;;4.50;;
74401;SDS011;62837;51.082;13.744;2022-12-07T00:20:37;7.60;;;4.80;;
74401;SDS011;62837;51.082;13.744;2022-12-07T00:23:08;7.30;;;4.50;;
74401;SDS011;62837;51.082;13.744;2022-12-07T00:25:38;7.90;;;4.50;;
74401;SDS011;62837;51.082;13.744;2022-12-07T00:28:09;5.00;;;3.00;;
74401;SDS011;62837;51.082;13.744;2022-12-07T00:30:40;4.50;;;2.20;;
74401;SDS011;62837;51.082;13.744;2022-12-07T00:33:11;7.00;;;4.30;;
74401;SDS011;62837;51.082;13.744;2022-12-07T00:35:41;6.30;;;3.80;;
74401;SDS011;62837;51.082;13.744;2022-12-07T00:38:12;7.20;;;4.20;;
74401;SDS011;62837;51.082;13.744;2022-12-07T00:40:43;7.70;;;4.20;;
74401;SDS011;62837;51.082;13.744;2022-12-07T00:43:22;4.50;;;2.70;;
74401;SDS011;62837;51.082;13.744;2022-12-07T00:45:53;8.40;;;4.20;;
74401;SDS011;62837;51.082;13.744;2022-12-07T00:48:24;8.10;;;4.60;;
74401;SDS011;62837;51.082;13.744;2022-12-07T00:50:56;8.60;;;4.60;;
74401;SDS011;62837;51.082;13.744;2022-12-07T00:53:27;6.00;;;3.30;;
74401;SDS011;62837;51.082;13.744;2022-12-07T00:56:06;8.50;;;5.10;;
74401;SDS011;62837;51.082;13.744;2022-12-07T00:58:37;7.70;;;4.40;;
74401;SDS011;62837;51.082;13.744;2022-12-07T01:01:08;5.80;;;3.50;;
74401;SDS011;62837;51.082;13.744;2022-12-07T01:03:40;7.00;;;3.40;;
74401;SDS011;62837;51.082;13.744;2022-12-07T01:06:13;9.20;;;5.20;;
74401;SDS011;62837;51.082;13.744;2022-12-07T01:08:44;7.70;;;4.40;;
74401;SDS011;62837;51.082;13.744;2022-12-07T01:11:16;8.10;;;4.50;;
74401;SDS011;62837;51.082;13.744;2022-12-07T01:13:50;10.70;;;5.20;;
74401;SDS011;62837;51.082;13.744;2022-12-07T01:16:23;7.20;;;3.90;;
74401;SDS011;62837;51.082;13.744;2022-12-07T01:18:55;7.20;;;3.50;;
74401;SDS011;62837;51.082;13.744;2022-12-07T01:21:27;7.40;;;4.40;;
74401;SDS011;62837;51.082;13.744;2022-12-07T01:24:02;8.70;;;4.50;;
74401;SDS011;62837;51.082;13.744;2022-12-07T01:26:35;8.60;;;4.90;;
74401;SDS011;62837;51.082;13.744;2022-12-07T01:29:06;8.70;;;4.70;;
74401;SDS011;62837;51.082;13.744;2022-12-07T01:31:37;8.60;;;4.60;;
74401;SDS011;62837;51.082;13.744;2022-12-07T01:34:08;9.70;;;5.30;;
74401;SDS011;62837;51.082;13.744;2022-12-07T01:36:39;6.30;;;4.00;;
74401;SDS011;62837;51.082;13.744;2022-12-07T01:39:10;8.80;;;4.60;;
74401;SDS011;62837;51.082;13.744;2022-12-07T01:41:40;8.80;;;5.30;;
74401;SDS011;62837;51.082;13.744;2022-12-07T01:44:14;6.30;;;3.70;;
74401;SDS011;62837;51.082;13.744;2022-12-07T01:46:49;9.80;;;5.00;;
74401;SDS011;62837;51.082;13.744;2022-12-07T01:49:25;6.30;;;3.40;;
74401;SDS011;62837;51.082;13.744;2022-12-07T01:52:00;8.40;;;4.60;;
74401;SDS011;62837;51.082;13.744;2022-12-07T01:54:39;10.10;;;5.40;;
74401;SDS011;62837;51.082;13.744;2022-12-07T01:57:10;8.50;;;3.60;;
74401;SDS011;62837;51.082;13.744;2022-12-07T01:59:44;11.10;;;4.90;;
74401;SDS011;62837;51.082;13.744;2022-12-07T02:02:18;8.50;;;4.30;;
74401;SDS011;62837;51.082;13.744;2022-12-07T02:04:52;9.80;;;5.30;;
74401;SDS011;62837;51.082;13.744;2022-12-07T02:07:24;9.70;;;4.40;;
74401;SDS011;62837;51.082;13.744;2022-12-07T02:09:55;7.00;;;3.60;;
74401;SDS011;62837;51.082;13.744;2022-12-07T02:12:27;8.70;;;4.00;;
74401;SDS011;62837;51.082;13.744;2022-12-07T02:14:57;5.70;;;2.80;;
74401;SDS011;62837;51.082;13.744;2022-12-07T02:17:30;7.10;;;4.20;;
74401;SDS011;62837;51.082;13.744;2022-12-07T02:20:20;4.50;;;2.80;;
74401;SDS011;62837;51.082;13.744;2022-12-07T02:23:12;8.00;;;4.30;;
74401;SDS011;62837;51.082;13.744;2022-12-07T02:26:14;7.70;;;4.40;;
74401;SDS011;62837;51.082;13.744;2022-12-07T02:29:12;7.30;;;3.80;;
74401;SDS011;62837;51.082;13.744;2022-12-07T02:31:49;4.60;;;2.40;;
74401;SDS011;62837;51.082;13.744;2022-12-07T02:34:28;5.50;;;3.60;;
74401;SDS011;62837;51.082;13.744;2022-12-07T02:37:08;7.20;;;3.80;;
74401;SDS011;62837;51.082;13.744;2022-12-07T02:39:47;7.20;;;3.50;;
74401;SDS011;62837;51.082;13.744;2022-12-07T02:42:23;6.10;;;3.80;;
74401;SDS011;62837;51.082;13.744;2022-12-07T02:44:57;6.30;;;4.10;;
74401;SDS011;62837;51.082;13.744;2022-12-07T02:47:30;7.30;;;3.90;;
74401;SDS011;62837;51.082;13.744;2022-12-07T02:50:04;6.30;;;3.60;;
74401;SDS011;62837;51.082;13.744;2022-12-07T02:52:36;6.00;;;3.60;;
74401;SDS011;62837;51.082;13.744;2022-12-07T02:55:08;5.30;;;3.20;;
74401;SDS011;62837;51.082;13.744;2022-12-07T02:57:45;6.30;;;3.60;;
74401;SDS011;62837;51.082;13.744;2022-12-07T03:02:55;6.10;;;3.50;;
74401;SDS011;62837;51.082;13.744;2022-12-07T03:08:31;6.40;;;3.90;;
74401;SDS011;62837;51.082;13.744;2022-12-07T03:11:08;6.90;;;4.10;;
74401;SDS011;62837;51.082;13.744;2022-12-07T03:13:49;6.10;;;3.90;;
74401;SDS011;62837;51.082;13.744;2022-12-07T03:16:26;7.40;;;4.60;;
74401;SDS011;62837;51.082;13.744;2022-12-07T03:19:02;6.80;;;4.10;;
74401;SDS011;62837;51.082;13.744;2022-12-07T03:21:37;7.80;;;4.20;;
74401;SDS011;62837;51.082;13.744;2022-12-07T03:24:12;6.50;;;3.90;;
74401;SDS011;62837;51.082;13.744;2022-12-07T03:26:48;5.80;;;3.60;;
74401;SDS011;62837;51.082;13.744;2022-12-07T03:29:24;7.80;;;4.20;;
74401;SDS011;62837;51.082;13.744;2022-12-07T03:31:58;6.40;;;4.00;;
74401;SDS011;62837;51.082;13.744;2022-12-07T03:34:32;5.70;;;3.70;;
74401;SDS011;62837;51.082;13.744;2022-12-07T03:37:09;5.40;;;3.70;;
74401;SDS011;62837;51.082;13.744;2022-12-07T03:39:46;5.60;;;3.30;;
74401;SDS011;62837;51.082;13.744;2022-12-07T03:42:26;6.10;;;3.80;;
74401;SDS011;62837;51.082;13.744;2022-12-07T03:44:58;6.90;;;4.10;;
74401;SDS011;62837;51.082;13.744;2022-12-07T03:47:31;7.00;;;4.10;;
74401;SDS011;62837;51.082;13.744;2022-12-07T03:50:07;5.60;;;3.60;;
74401;SDS011;62837;51.082;13.744;2022-12-07T03:52:45;7.20;;;4.50;;
74401;SDS011;62837;51.082;13.744;2022-12-07T03:55:25;7.30;;;4.90;;
74401;SDS011;62837;51.082;13.744;2022-12-07T03:57:59;7.30;;;4.60;;
74401;SDS011;62837;51.082;13.744;2022-12-07T04:00:32;7.80;;;4.70;;
74401;SDS011;62837;51.082;13.744;2022-12-07T04:03:04;8.10;;;4.50;;
74401;SDS011;62837;51.082;13.744;2022-12-07T04:05:34;7.60;;;4.60;;
74401;SDS011;62837;51.082;13.744;2022-12-07T04:08:05;7.10;;;4.60;;
74401;SDS011;62837;51.082;13.744;2022-12-07T04:10:36;7.50;;;4.10;;
74401;SDS011;62837;51.082;13.744;2022-12-07T04:13:07;6.70;;;4.30;;
74401;SDS011;62837;51.082;13.744;2022-12-07T04:15:38;5.60;;;3.70;;
74401;SDS011;62837;51.082;13.744;2022-12-07T04:18:09;8.20;;;4.60;;
74401;SDS011;62837;51.082;13.744;2022-12-07T04:20:39;6.40;;;4.00;;
74401;SDS011;62837;51.082;13.744;2022-12-07T04:23:10;9.90;;;4.90;;
74401;SDS011;62837;51.082;13.744;2022-12-07T04:25:41;8.20;;;5.10;;
74401;SDS011;62837;51.082;13.744;2022-12-07T04:28:12;8.40;;;4.40;;
74401;SDS011;62837;51.082;13.744;2022-12-07T04:30:43;10.10;;;5.10;;
74401;SDS011;62837;51.082;13.744;2022-12-07T04:33:14;8.50;;;4.90;;
74401;SDS011;62837;51.082;13.744;2022-12-07T04:35:44;11.90;;;6.70;;
74401;SDS011;62837;51.082;13.744;2022-12-07T04:38:15;11.50;;;5.80;;
74401;SDS011;62837;51.082;13.744;2022-12-07T04:40:46;8.10;;;4.30;;
74401;SDS011;62837;51.082;13.744;2022-12-07T04:43:16;8.10;;;4.50;;
74401;SDS011;62837;51.082;13.744;2022-12-07T04:45:47;8.60;;;4.70;;
74401;SDS011;62837;51.082;13.744;2022-12-07T04:48:19;11.50;;;5.10;;
74401;SDS011;62837;51.082;13.744;2022-12-07T04:50:49;12.30;;;5.70;;
74401;SDS011;62837;51.082;13.744;2022-12-07T04:53:20;15.10;;;6.20;;
74401;SDS011;62837;51.082;13.744;2022-12-07T04:55:51;9.10;;;5.10;;
74401;SDS011;62837;51.082;13.744;2022-12-07T04:58:21;11.00;;;5.80;;
74401;SDS011;62837;51.082;13.744;2022-12-07T05:00:54;8.60;;;5.00;;
74401;SDS011;62837;51.082;13.744;2022-12-07T05:03:25;7.60;;;4.30;;
74401;SDS011;62837;51.082;13.744;2022-12-07T05:05:56;8.30;;;4.60;;
74401;SDS011;62837;51.082;13.744;2022-12-07T05:08:27;6.80;;;4.20;;
74401;SDS011;62837;51.082;13.744;2022-12-07T05:10:57;10.40;;;5.00;;
74401;SDS011;62837;51.082;13.744;2022-12-07T05:13:28;8.50;;;5.20;;
74401;SDS011;62837;51.082;13.744;2022-12-07T05:15:59;12.20;;;6.20;;
74401;SDS011;62837;51.082;13.744;2022-12-07T05:18:30;9.60;;;5.50;;
74401;SDS011;62837;51.082;13.744;2022-12-07T05:21:01;7.60;;;4.40;;
74401;SDS011;62837;51.082;13.744;2022-12-07T05:23:31;9.30;;;5.10;;
74401;SDS011;62837;51.082;13.744;2022-12-07T05:26:02;10.10;;;5.60;;
74401;SDS011;62837;51.082;13.744;2022-12-07T05:28:33;9.70;;;5.40;;
74401;SDS011;62837;51.082;13.744;2022-12-07T05:31:04;8.80;;;4.70;;
74401;SDS011;62837;51.082;13.744;2022-12-07T05:33:36;9.10;;;4.80;;
74401;SDS011;62837;51.082;13.744;2022-12-07T05:36:07;8.60;;;4.50;;
74401;SDS011;62837;51.082;13.744;2022-12-07T05:38:38;10.70;;;5.20;;
74401;SDS011;62837;51.082;13.744;2022-12-07T05:41:09;10.20;;;5.00;;
74401;SDS011;62837;51.082;13.744;2022-12-07T05:43:57;7.60;;;4.50;;
74401;SDS011;62837;51.082;13.744;2022-12-07T05:46:28;7.00;;;3.30;;
74401;SDS011;62837;51.082;13.744;2022-12-07T05:48:59;7.10;;;4.30;;
74401;SDS011;62837;51.082;13.744;2022-12-07T05:51:30;7.00;;;3.90;;
74401;SDS011;62837;51.082;13.744;2022-12-07T05:54:01;7.30;;;3.40;;
74401;SDS011;62837;51.082;13.744;2022-12-07T05:56:32;6.60;;;3.80;;
74401;SDS011;62837;51.082;13.744;2022-12-07T05:59:03;6.00;;;3.70;;
74401;SDS011;62837;51.082;13.744;2022-12-07T06:01:52;6.00;;;4.20;;
74401;SDS011;62837;51.082;13.744;2022-12-07T06:04:25;6.80;;;3.60;;
74401;SDS011;62837;51.082;13.744;2022-12-07T06:06:57;7.00;;;3.00;;
74401;SDS011;62837;51.082;13.744;2022-12-07T06:09:28;6.30;;;4.00;;
74401;SDS011;62837;51.082;13.744;2022-12-07T06:11:59;6.60;;;4.10;;
74401;SDS011;62837;51.082;13.744;2022-12-07T06:14:48;6.50;;;3.60;;
74401;SDS011;62837;51.082;13.744;2022-12-07T06:17:18;6.30;;;3.90;;
74401;SDS011;62837;51.082;13.744;2022-12-07T06:19:49;6.50;;;3.40;;
74401;SDS011;62837;51.082;13.744;2022-12-07T06:22:20;6.30;;;3.80;;
74401;SDS011;62837;51.082;13.744;2022-12-07T06:24:51;6.60;;;3.50;;
74401;SDS011;62837;51.082;13.744;2022-12-07T06:27:22;6.90;;;3.70;;
74401;SDS011;62837;51.082;13.744;2022-12-07T06:29:53;6.60;;;3.70;;
74401;SDS011;62837;51.082;13.744;2022-12-07T06:32:23;5.60;;;3.40;;
74401;SDS011;62837;51.082;13.744;2022-12-07T06:34:54;4.40;;;2.70;;
74401;SDS011;62837;51.082;13.744;2022-12-07T06:37:25;5.10;;;2.70;;
74401;SDS011;62837;51.082;13.744;2022-12-07T06:39:55;4.90;;;3.00;;
74401;SDS011;62837;51.082;13.744;2022-12-07T06:42:27;2.60;;;1.50;;
74401;SDS011;62837;51.082;13.744;2022-12-07T06:44:58;4.50;;;2.70;;
74401;SDS011;62837;51.082;13.744;2022-12-07T06:47:32;3.80;;;2.20;;
74401;SDS011;62837;51.082;13.744;2022-12-07T06:50:10;3.80;;;2.30;;
74401;SDS011;62837;51.082;13.744;2022-12-07T06:52:41;1.90;;;1.20;;
74401;SDS011;62837;51.082;13.744;2022-12-07T06:55:11;4.20;;;3.40;;
74401;SDS011;62837;51.082;13.744;2022-12-07T06:57:42;2.50;;;1.60;;
74401;SDS011;62837;51.082;13.744;2022-12-07T07:00:14;3.20;;;1.70;;
74401;SDS011;62837;51.082;13.744;2022-12-07T07:02:49;3.60;;;2.20;;
74401;SDS011;62837;51.082;13.744;2022-12-07T07:05:20;4.00;;;2.60;;
74401;SDS011;62837;51.082;13.744;2022-12-07T07:07:50;3.60;;;2.50;;
74401;SDS011;62837;51.082;13.744;2022-12-07T07:10:41;4.30;;;2.40;;
74401;SDS011;62837;51.082;13.744;2022-12-07T07:13:12;4.90;;;1.90;;
74401;SDS011;62837;51.082;13.744;2022-12-07T07:15:43;6.10;;;2.10;;
74401;SDS011;62837;51.082;13.744;2022-12-07T07:18:14;3.90;;;2.20;;
74401;SDS011;62837;51.082;13.744;2022-12-07T07:20:44;2.90;;;1.80;;
74401;SDS011;62837;51.082;13.744;2022-12-07T07:23:15;4.60;;;2.50;;
74401;SDS011;62837;51.082;13.744;2022-12-07T07:25:46;3.10;;;1.40;;
74401;SDS011;62837;51.082;13.744;2022-12-07T07:28:17;3.90;;;2.10;;
74401;SDS011;62837;51.082;13.744;2022-12-07T07:30:48;5.90;;;3.10;;
74401;SDS011;62837;51.082;13.744;2022-12-07T07:33:19;3.60;;;2.10;;
74401;SDS011;62837;51.082;13.744;2022-12-07T07:35:50;4.60;;;2.30;;
74401;SDS011;62837;51.082;13.744;2022-12-07T07:38:21;4.00;;;2.30;;
74401;SDS011;62837;51.082;13.744;2022-12-07T07:40:51;4.40;;;3.10;;
74401;SDS011;62837;51.082;13.744;2022-12-07T07:43:22;2.40;;;1.50;;
74401;SDS011;62837;51.082;13.744;2022-12-07T07:45:53;5.40;;;2.20;;
74401;SDS011;62837;51.082;13.744;2022-12-07T07:48:24;3.20;;;1.80;;
74401;SDS011;62837;51.082;13.744;2022-12-07T07:50:54;4.50;;;2.40;;
74401;SDS011;62837;51.082;13.744;2022-12-07T07:53:25;3.00;;;1.80;;
74401;SDS011;62837;51.082;13.744;2022-12-07T07:55:56;4.70;;;2.40;;
74401;SDS011;62837;51.082;13.744;2022-12-07T07:58:27;4.30;;;2.20;;
74401;SDS011;62837;51.082;13.744;2022-12-07T08:00:58;3.50;;;2.30;;
74401;SDS011;62837;51.082;13.744;2022-12-07T08:03:34;3.20;;;2.30;;
74401;SDS011;62837;51.082;13.744;2022-12-07T08:06:06;7.00;;;4.40;;
74401;SDS011;62837;51.082;13.744;2022-12-07T08:08:36;7.20;;;3.80;;
74401;SDS011;62837;51.082;13.744;2022-12-07T08:11:07;6.80;;;3.20;;
74401;SDS011;62837;51.082;13.744;2022-12-07T08:13:38;4.50;;;2.80;;
74401;SDS011;62837;51.082;13.744;2022-12-07T08:16:09;4.40;;;2.90;;
74401;SDS011;62837;51.082;13.744;2022-12-07T08:18:40;7.10;;;3.50;;
74401;SDS011;62837;51.082;13.744;2022-12-07T08:21:13;6.90;;;3.50;;
74401;SDS011;62837;51.082;13.744;2022-12-07T08:23:44;4.50;;;2.70;;
74401;SDS011;62837;51.082;13.744;2022-12-07T08:26:15;4.20;;;2.80;;
74401;SDS011;62837;51.082;13.744;2022-12-07T08:28:46;6.60;;;4.00;;
74401;SDS011;62837;51.082;13.744;2022-12-07T08:31:17;5.80;;;4.10;;
74401;SDS011;62837;51.082;13.744;2022-12-07T08:33:48;4.10;;;2.20;;
74401;SDS011;62837;51.082;13.744;2022-12-07T08:36:19;4.70;;;2.60;;
74401;SDS011;62837;51.082;13.744;2022-12-07T08:38:50;6.10;;;3.90;;
74401;SDS011;62837;51.082;13.744;2022-12-07T08:41:41;4.70;;;3.20;;
74401;SDS011;62837;51.082;13.744;2022-12-07T08:44:12;8.00;;;3.70;;
74401;SDS011;62837;51.082;13.744;2022-12-07T08:46:44;5.90;;;3.20;;
74401;SDS011;62837;51.082;13.744;2022-12-07T08:49:18;8.20;;;4.30;;
74401;SDS011;62837;51.082;13.744;2022-12-07T08:51:53;8.10;;;4.20;;
74401;SDS011;62837;51.082;13.744;2022-12-07T08:54:25;7.40;;;4.50;;
74401;SDS011;62837;51.082;13.744;2022-12-07T08:56:57;8.10;;;4.30;;
74401;SDS011;62837;51.082;13.744;2022-12-07T08:59:27;6.30;;;3.50;;
74401;SDS011;62837;51.082;13.744;2022-12-07T09:01:59;5.90;;;3.20;;
74401;SDS011;62837;51.082;13.744;2022-12-07T09:04:30;6.60;;;3.70;;
74401;SDS011;62837;51.082;13.744;2022-12-07T09:07:01;7.00;;;3.70;;
74401;SDS011;62837;51.082;13.744;2022-12-07T09:09:32;6.80;;;4.40;;
74401;SDS011;62837;51.082;13.744;2022-12-07T09:12:04;6.80;;;3.30;;
74401;SDS011;62837;51.082;13.744;2022-12-07T09:14:34;5.50;;;3.20;;
74401;SDS011;62837;51.082;13.744;2022-12-07T09:17:06;8.10;;;4.10;;
74401;SDS011;62837;51.082;13.744;2022-12-07T09:19:38;7.60;;;3.40;;
74401;SDS011;62837;51.082;13.744;2022-12-07T09:22:10;3.80;;;2.10;;
74401;SDS011;62837;51.082;13.744;2022-12-07T09:24:40;6.60;;;3.90;;
74401;SDS011;62837;51.082;13.744;2022-12-07T09:27:13;4.60;;;3.00;;
74401;SDS011;62837;51.082;13.744;2022-12-07T09:29:45;7.00;;;4.00;;
74401;SDS011;62837;51.082;13.744;2022-12-07T09:32:16;6.40;;;3.40;;
74401;SDS011;62837;51.082;13.744;2022-12-07T09:34:47;8.10;;;3.90;;
74401;SDS011;62837;51.082;13.744;2022-12-07T09:37:17;5.50;;;3.00;;
74401;SDS011;62837;51.082;13.744;2022-12-07T09:39:48;7.40;;;3.50;;
74401;SDS011;62837;51.082;13.744;2022-12-07T09:42:24;7.10;;;3.10;;
74401;SDS011;62837;51.082;13.744;2022-12-07T09:44:59;4.90;;;2.90;;
74401;SDS011;62837;51.082;13.744;2022-12-07T09:47:31;5.50;;;3.20;;
74401;SDS011;62837;51.082;13.744;2022-12-07T09:50:05;4.30;;;2.50;;
74401;SDS011;62837;51.082;13.744;2022-12-07T09:52:41;4.00;;;1.80;;
74401;SDS011;62837;51.082;13.744;2022-12-07T09:55:16;7.40;;;3.10;;
74401;SDS011;62837;51.082;13.744;2022-12-07T09:57:50;5.10;;;3.00;;
74401;SDS011;62837;51.082;13.744;2022-12-07T10:00:22;6.30;;;3.00;;
74401;SDS011;62837;51.082;13.744;2022-12-07T10:02:54;3.40;;;2.20;;
74401;SDS011;62837;51.082;13.744;2022-12-07T10:05:27;5.30;;;2.80;;
74401;SDS011;62837;51.082;13.744;2022-12-07T10:08:01;4.90;;;2.40;;
74401;SDS011;62837;51.082;13.744;2022-12-07T10:10:33;6.90;;;2.80;;
74401;SDS011;62837;51.082;13.744;2022-12-07T10:13:07;5.60;;;2.80;;
74401;SDS011;62837;51.082;13.744;2022-12-07T10:15:42;4.50;;;2.30;;
74401;SDS011;62837;51.082;13.744;2022-12-07T10:18:20;4.10;;;2.10;;
74401;SDS011;62837;51.082;13.744;2022-12-07T10:21:09;9.80;;;3.80;;
74401;SDS011;62837;51.082;13.744;2022-12-07T10:26:31;5.20;;;3.10;;
74401;SDS011;62837;51.082;13.744;2022-12-07T10:29:04;5.80;;;2.30;;
74401;SDS011;62837;51.082;13.744;2022-12-07T10:31:46;4.80;;;2.30;;
74401;SDS011;62837;51.082;13.744;2022-12-07T10:34:22;7.20;;;3.20;;
74401;SDS011;62837;51.082;13.744;2022-12-07T10:37:06;2.30;;;1.20;;
74401;SDS011;62837;51.082;13.744;2022-12-07T10:39:44;7.60;;;3.00;;
74401;SDS011;62837;51.082;13.744;2022-12-07T10:42:17;5.20;;;3.00;;
74401;SDS011;62837;51.082;13.744;2022-12-07T10:44:50;7.00;;;2.60;;
74401;SDS011;62837;51.082;13.744;2022-12-07T10:47:38;5.50;;;2.30;;
74401;SDS011;62837;51.082;13.744;2022-12-07T10:50:37;4.10;;;2.40;;
74401;SDS011;62837;51.082;13.744;2022-12-07T10:53:19;5.20;;;2.30;;
74401;SDS011;62837;51.082;13.744;2022-12-07T10:56:06;7.70;;;3.30;;
74401;SDS011;62837;51.082;13.744;2022-12-07T10:58:56;4.30;;;2.40;;
74401;SDS011;62837;51.082;13.744;2022-12-07T11:01:41;3.90;;;2.20;;
74401;SDS011;62837;51.082;13.744;2022-12-07T11:04:24;5.10;;;3.40;;
74401;SDS011;62837;51.082;13.744;2022-12-07T11:07:01;2.60;;;1.30;;
74401;SDS011;62837;51.082;13.744;2022-12-07T11:09:49;8.30;;;3.50;;
74401;SDS011;62837;51.082;13.744;2022-12-07T11:12:44;6.40;;;2.70;;
74401;SDS011;62837;51.082;13.744;2022-12-07T11:15:24;5.50;;;3.40;;
74401;SDS011;62837;51.082;13.744;2022-12-07T11:18:00;7.50;;;4.00;;
74401;SDS011;62837;51.082;13.744;2022-12-07T11:20:36;4.60;;;3.20;;
74401;SDS011;62837;51.082;13.744;2022-12-07T11:23:15;7.40;;;3.50;;
74401;SDS011;62837;51.082;13.744;2022-12-07T11:25:52;7.70;;;3.70;;
74401;SDS011;62837;51.082;13.744;2022-12-07T11:28:32;6.50;;;3.30;;
74401;SDS011;62837;51.082;13.744;2022-12-07T11:31:15;5.50;;;3.00;;
74401;SDS011;62837;51.082;13.744;2022-12-07T11:33:57;5.30;;;1.60;;
74401;SDS011;62837;51.082;13.744;2022-12-07T11:36:37;3.60;;;2.00;;
74401;SDS011;62837;51.082;13.744;2022-12-07T11:39:14;2.70;;;1.50;;
74401;SDS011;62837;51.082;13.744;2022-12-07T11:42:00;4.80;;;1.70;;
74401;SDS011;62837;51.082;13.744;2022-12-07T11:44:37;6.00;;;2.80;;
74401;SDS011;62837;51.082;13.744;2022-12-07T11:47:16;5.30;;;2.50;;
74401;SDS011;62837;51.082;13.744;2022-12-07T11:49:53;6.90;;;2.70;;
74401;SDS011;62837;51.082;13.744;2022-12-07T11:52:29;3.90;;;1.70;;
74401;SDS011;62837;51.082;13.744;2022-12-07T11:55:16;7.80;;;2.80;;
74401;SDS011;62837;51.082;13.744;2022-12-07T11:57:54;6.10;;;2.70;;
74401;SDS011;62837;51.082;13.744;2022-12-07T12:00:32;3.60;;;2.50;;
74401;SDS011;62837;51.082;13.744;2022-12-07T12:03:05;6.20;;;3.50;;
74401;SDS011;62837;51.082;13.744;2022-12-07T12:05:44;5.70;;;4.10;;
74401;SDS011;62837;51.082;13.744;2022-12-07T12:08:15;6.20;;;3.20;;
74401;SDS011;62837;51.082;13.744;2022-12-07T12:11:12;5.80;;;3.40;;
74401;SDS011;62837;51.082;13.744;2022-12-07T12:14:11;8.00;;;3.30;;
74401;SDS011;62837;51.082;13.744;2022-12-07T12:17:06;7.20;;;3.60;;
74401;SDS011;62837;51.082;13.744;2022-12-07T12:19:59;7.60;;;3.60;;
74401;SDS011;62837;51.082;13.744;2022-12-07T12:22:36;9.00;;;4.80;;
74401;SDS011;62837;51.082;13.744;2022-12-07T12:25:20;6.30;;;3.30;;
74401;SDS011;62837;51.082;13.744;2022-12-07T12:27:54;8.90;;;3.70;;
74401;SDS011;62837;51.082;13.744;2022-12-07T12:30:31;5.00;;;2.30;;
74401;SDS011;62837;51.082;13.744;2022-12-07T12:33:05;7.00;;;3.50;;
74401;SDS011;62837;51.082;13.744;2022-12-07T12:35:42;7.80;;;4.10;;
74401;SDS011;62837;51.082;13.744;2022-12-07T12:38:26;7.30;;;4.40;;
74401;SDS011;62837;51.082;13.744;2022-12-07T12:41:01;6.10;;;2.80;;
74401;SDS011;62837;51.082;13.744;2022-12-07T12:43:46;5.90;;;3.30;;
74401;SDS011;62837;51.082;13.744;2022-12-07T12:46:44;5.60;;;3.70;;
74401;SDS011;62837;51.082;13.744;2022-12-07T12:55:21;5.10;;;2.20;;
74401;SDS011;62837;51.082;13.744;2022-12-07T12:58:31;3.30;;;2.00;;
74401;SDS011;62837;51.082;13.744;2022-12-07T13:04:21;2.60;;;0.90;;
74401;SDS011;62837;51.082;13.744;2022-12-07T13:10:28;1.60;;;0.50;;
74401;SDS011;62837;51.082;13.744;2022-12-07T13:13:33;1.30;;;0.30;;
74401;SDS011;62837;51.082;13.744;2022-12-07T13:25:31;1.30;;;0.90;;
74401;SDS011;62837;51.082;13.744;2022-12-07T13:28:09;1.90;;;0.90;;
74401;SDS011;62837;51.082;13.744;2022-12-07T13:30:46;2.70;;;1.60;;
74401;SDS011;62837;51.082;13.744;2022-12-07T13:33:28;1.70;;;0.90;;
74401;SDS011;62837;51.082;13.744;2022-12-07T13:36:03;3.30;;;1.10;;
74401;SDS011;62837;51.082;13.744;2022-12-07T13:38:47;0.90;;;0.60;;
74401;SDS011;62837;51.082;13.744;2022-12-07T13:41:20;1.90;;;0.70;;
74401;SDS011;62837;51.082;13.744;2022-12-07T13:43:53;2.40;;;0.60;;
74401;SDS011;62837;51.082;13.744;2022-12-07T13:46:40;1.30;;;0.60;;
74401;SDS011;62837;51.082;13.744;2022-12-07T13:49:23;2.50;;;1.50;;
74401;SDS011;62837;51.082;13.744;2022-12-07T13:52:06;3.40;;;0.90;;
74401;SDS011;62837;51.082;13.744;2022-12-07T13:54:47;3.40;;;1.20;;
74401;SDS011;62837;51.082;13.744;2022-12-07T13:57:19;2.70;;;1.60;;
74401;SDS011;62837;51.082;13.744;2022-12-07T13:59:50;2.80;;;1.30;;
74401;SDS011;62837;51.082;13.744;2022-12-07T14:02:22;3.50;;;2.50;;
74401;SDS011;62837;51.082;13.744;2022-12-07T14:05:08;2.70;;;1.90;;
74401;SDS011;62837;51.082;13.744;2022-12-07T14:07:52;2.80;;;2.00;;
74401;SDS011;62837;51.082;13.744;2022-12-07T14:10:26;5.60;;;2.40;;
74401;SDS011;62837;51.082;13.744;2022-12-07T14:12:59;4.90;;;2.50;;
74401;SDS011;62837;51.082;13.744;2022-12-07T14:15:32;2.30;;;1.10;;
74401;SDS011;62837;51.082;13.744;2022-12-07T14:18:03;3.70;;;2.50;;
74401;SDS011;62837;51.082;13.744;2022-12-07T14:20:35;2.80;;;2.10;;
74401;SDS011;62837;51.082;13.744;2022-12-07T14:23:21;5.70;;;2.90;;
74401;SDS011;62837;51.082;13.744;2022-12-07T14:25:53;5.20;;;2.60;;
74401;SDS011;62837;51.082;13.744;2022-12-07T14:28:34;4.80;;;3.00;;
74401;SDS011;62837;51.082;13.744;2022-12-07T14:31:09;4.20;;;2.50;;
74401;SDS011;62837;51.082;13.744;2022-12-07T14:33:50;4.70;;;2.80;;
74401;SDS011;62837;51.082;13.744;2022-12-07T14:36:21;5.00;;;2.40;;
74401;SDS011;62837;51.082;13.744;2022-12-07T14:38:52;4.90;;;2.50;;
74401;SDS011;62837;51.082;13.744;2022-12-07T14:41:25;4.30;;;1.90;;
74401;SDS011;62837;51.082;13.744;2022-12-07T14:44:14;5.00;;;3.00;;
74401;SDS011;62837;51.082;13.744;2022-12-07T14:46:53;4.00;;;2.90;;
74401;SDS011;62837;51.082;13.744;2022-12-07T14:49:43;4.90;;;2.90;;
74401;SDS011;62837;51.082;13.744;2022-12-07T14:52:15;7.30;;;3.10;;
74401;SDS011;62837;51.082;13.744;2022-12-07T14:55:13;8.10;;;3.20;;
74401;SDS011;62837;51.082;13.744;2022-12-07T14:57:49;5.80;;;3.70;;
74401;SDS011;62837;51.082;13.744;2022-12-07T15:00:21;6.00;;;3.50;;
74401;SDS011;62837;51.082;13.744;2022-12-07T15:02:53;7.30;;;4.50;;
74401;SDS011;62837;51.082;13.744;2022-12-07T15:05:24;7.00;;;4.20;;
74401;SDS011;62837;51.082;13.744;2022-12-07T15:07:55;9.70;;;5.90;;
74401;SDS011;62837;51.082;13.744;2022-12-07T15:10:26;8.10;;;4.40;;
74401;SDS011;62837;51.082;13.744;2022-12-07T15:13:00;11.30;;;4.80;;
74401;SDS011;62837;51.082;13.744;2022-12-07T15:15:45;10.90;;;5.90;;
74401;SDS011;62837;51.082;13.744;2022-12-07T15:18:17;12.40;;;6.50;;
74401;SDS011;62837;51.082;13.744;2022-12-07T15:20:50;11.20;;;5.50;;
74401;SDS011;62837;51.082;13.744;2022-12-07T15:23:20;24.10;;;9.60;;
74401;SDS011;62837;51.082;13.744;2022-12-07T15:25:51;14.00;;;8.60;;
74401;SDS011;62837;51.082;13.744;2022-12-07T15:28:22;8.20;;;4.80;;
74401;SDS011;62837;51.082;13.744;2022-12-07T15:30:53;6.60;;;4.10;;
74401;SDS011;62837;51.082;13.744;2022-12-07T15:33:24;7.20;;;3.70;;
74401;SDS011;62837;51.082;13.744;2022-12-07T15:35:54;5.50;;;3.00;;
74401;SDS011;62837;51.082;13.744;2022-12-07T15:38:27;8.60;;;3.90;;
74401;SDS011;62837;51.082;13.744;2022-12-07T15:41:19;4.00;;;2.10;;
74401;SDS011;62837;51.082;13.744;2022-12-07T15:43:50;4.40;;;1.60;;
74401;SDS011;62837;51.082;13.744;2022-12-07T15:46:39;5.80;;;2.60;;
74401;SDS011;62837;51.082;13.744;2022-12-07T15:49:12;3.20;;;1.50;;